METAR historie Texel International Airport (EHTX)

1 oktober 2022

Tijd Code Weer Temp. Zicht Plafond Wind METAR/SPECI
12:59
V
16 °C 10 km+ 5.700 ft 280° 280° 17 kt METAR EHKD 011059Z AUTO 28017KT 250V320 9999 FEW023 SCT027 BKN057 16/11 Q1002 BLU
12:55
V
16 °C 10 km+ 3.700 ft 290° 290° 16 kt METAR EHKD 011055Z AUTO 29016KT 250V330 9999 SCT022 SCT026 BKN037 16/11 Q1002 WHT
12:43
V
16 °C 10 km+ - 290° 290° 17 kt METAR EHKD 011043Z AUTO 29017KT 250V320 9999 FEW022 SCT026 16/11 Q1002 BLU
12:35
V
16 °C 10 km+ 4.000 ft 280° 280° 18 kt METAR EHKD 011035Z AUTO 28018KT 250V320 9999 FEW020 SCT024 BKN040 16/11 Q1002 WHT
12:31
V
16 °C 10 km+ 4.100 ft 280° 280° 18 kt METAR EHKD 011031Z AUTO 28018KT 250V320 9999 FEW020 SCT028 BKN041 16/11 Q1002 BLU
12:25
M
16 °C 10 km+ 2.000 ft 290° 290° 17 - 27 kt METAR EHKD 011025Z AUTO 29017G27KT 240V320 9999 BKN020 OVC026 16/12 Q1002 WHT
12:09
M
16 °C 10 km+ 2.000 ft 290° 290° 16 kt METAR EHKD 011009Z AUTO 29016KT 250V330 9999 BKN020 BKN023 BKN029 16/12 Q1001 WHT
12:01
V
16 °C 10 km+ 5.500 ft 280° 280° 17 - 27 kt METAR EHKD 011001Z AUTO 28017G27KT 250V320 9999 FEW020 SCT032 BKN055 16/12 Q1001 BLU
11:55
V
16 °C 10 km+ 4.600 ft 290° 290° 15 - 27 kt METAR EHKD 010955Z AUTO 29015G27KT 250V340 9999 FEW016CB SCT022 BKN046 16/11 Q1001 WHT
11:40
M
15 °C 10 km+ 2.700 ft 280° 280° 17 kt METAR EHKD 010940Z AUTO 28017KT 250V320 9999 FEW015CB SCT019 BKN027 15/11 Q1001 WHT TEMPO 4500 SHRA SCT017CB BKN025
11:27
M
15 °C 10 km+ 2.000 ft 260° 260° 16 kt METAR EHKD 010927Z AUTO 26016KT 240V310 9999 -RA FEW015CB BKN020 BKN025 15/12 Q1001 WHT TEMPO 4500 SHRA SCT017CB BKN025
11:25
M
15 °C 10 km+ 2.700 ft 260° 260° 16 - 26 kt METAR EHKD 010925Z AUTO 26016G26KT 230V290 9999 -RA FEW015CB SCT016 BKN027 15/12 Q1000 WHT TEMPO 4500 SHRA SCT017CB BKN025
11:17
M
15 °C 6 km 6.000 ft 260° 260° 17 kt METAR EHKD 010917Z AUTO 26017KT 230V290 6000 -RA FEW015CB SCT050 BKN060 15/12 Q1000 WHT TEMPO 4500 SHRA SCT017CB BKN025
11:07
V
14 °C 10 km+ 5.100 ft 270° 270° 22 - 34 kt METAR EHKD 010907Z AUTO 27022G34KT 230V300 9999 -RA FEW015CB SCT036 BKN051 14/11 Q1000 BLU TEMPO 4500 SHRA SCT017CB BKN025
11:00
V
16 °C 10 km+ - 270° 270° 22 - 34 kt METAR EHKD 010900Z AUTO 27022G34KT 230V300 9999 FEW016CB SCT024 16/11 Q1000 WHT TEMPO 4500 SHRA SCT017CB BKN025
10:55
V
16 °C 10 km+ - 270° 270° 21 kt METAR EHKD 010855Z AUTO 27021KT 230V290 9999 FEW016CB 16/12 Q1000 BLU TEMPO 4500 SHRA SCT017CB BKN025
10:42
V
16 °C 10 km+ - 260° 260° 19 kt METAR EHKD 010842Z AUTO 26019KT 230V290 9999 FEW015CB SCT017 16/13 Q1000 WHT TEMPO 4500 SHRA SCT017CB BKN025
10:25
M
16 °C 10 km+ 2.100 ft 270° 270° 18 kt METAR EHKD 010825Z AUTO 27018KT 230V300 9999 SCT018 BKN021 BKN027 16/12 Q1000 WHT TEMPO 4500 SHRA SCT017CB BKN025
10:19
M
16 °C 10 km+ 2.100 ft 270° 270° 17 kt METAR EHKD 010819Z AUTO 27017KT 230V300 9999 SCT017 BKN021 BKN029 16/12 Q1000 WHT TEMPO 4500 SHRA SCT017CB BKN025
10:15
V
16 °C 10 km+ - 270° 270° 16 kt METAR EHKD 010815Z AUTO 27016KT 230V300 9999 SCT017 SCT021 16/12 Q1000 WHT TEMPO 4500 SHRA SCT017CB BKN025
10:11
V
16 °C 10 km+ - 270° 270° 17 kt METAR EHKD 010811Z AUTO 27017KT 240V300 9999 FEW016 16/12 Q0999 BLU TEMPO 4500 SHRA SCT017CB BKN025
09:55
V
16 °C 10 km+ - 270° 270° 14 kt METAR EHKD 010755Z AUTO 27014KT 240V300 9999 FEW015CB SCT016 16/12 Q0999 WHT TEMPO 4500 SHRA SCT017CB BKN025
09:42
V
15 °C 10 km+ 6.100 ft 260° 260° 14 kt METAR EHKD 010742Z AUTO 26014KT 230V290 9999 SCT015CB SCT027 BKN061 15/12 Q0999 WHT TEMPO 4500 SHRA SCT017CB BKN025
09:38
V
15 °C 10 km+ 6.100 ft 260° 260° 14 kt METAR EHKD 010738Z AUTO 26014KT 230V290 9999 -RA FEW015CB SCT025 BKN061 15/12 Q0999 BLU TEMPO 4500 SHRA SCT017CB BKN025
09:31
M
15 °C 10 km+ 2.000 ft 270° 270° 11 kt METAR EHKD 010731Z AUTO 27011KT 240V300 9999 FEW015CB SCT016 BKN020 BKN025 15/12 Q0999 WHT TEMPO 4500 SHRA SCT017CB BKN025
09:27
V
15 °C 10 km+ 3.400 ft 280° 280° 9 kt METAR EHKD 010727Z AUTO 28009KT 240V320 9999 FEW015CB SCT017 BKN034 15/12 Q0999 WHT TEMPO 4500 SHRA SCT017CB BKN025
09:25
V
15 °C 10 km+ - 280° 280° 9 kt METAR EHKD 010725Z AUTO 28009KT 250V320 9999 FEW015CB 15/12 Q0999 BLU TEMPO 4500 SHRA SCT017CB BKN025
08:55
V
14 °C 10 km+ 5.700 ft 290° 290° 8 kt METAR EHKD 010655Z AUTO 29008KT 250V320 9999 -RA FEW017 SCT026 BKN057 14/11 Q0999 BLU TEMPO 4500 SHRA SCT017CB BKN025
08:25
V
15 °C 10 km+ 6.200 ft 280° 280° 12 kt METAR EHKD 010625Z AUTO 28012KT 240V310 9999 FEW025 SCT056 BKN062 15/11 Q0998 BLU TEMPO 4500 SHRA SCT017CB BKN025
08:07
V
15 °C 10 km+ - 270° 270° 11 kt METAR EHKD 010607Z AUTO 27011KT 250V310 9999 FEW022 15/11 Q0998 BLU TEMPO 4500 SHRA SCT017CB BKN025
07:55
V
15 °C 10 km+ - 280° 280° 13 kt METAR EHKD 010555Z AUTO 28013KT 250V310 9999 FEW056 15/11 Q0998 BLU NOSIG
07:25
V
15 °C 10 km+ - 280° 280° 13 kt METAR EHKD 010525Z AUTO 28013KT 240V330 9999 NCD 15/11 Q0998 BLU NOSIG
07:18
V
15 °C 10 km+ - 280° 280° 12 kt METAR EHKD 010518Z AUTO 28012KT 240V310 9999 FEW018 15/11 Q0997 BLU NOSIG
07:12
V
15 °C 10 km+ - 280° 280° 13 kt METAR EHKD 010512Z AUTO 28013KT 250V310 9999 FEW018 SCT022 15/12 Q0997 WHT NOSIG
07:01
V
15 °C 10 km+ - 280° 280° 11 kt METAR EHKD 010501Z AUTO 28011KT 240V320 9999 FEW018 SCT061 15/12 Q0997 BLU NOSIG
06:55
M
15 °C 10 km+ 1.700 ft 280° 280° 12 kt METAR EHKD 010455Z AUTO 28012KT 9999 BKN017 BKN023 15/12 Q0997 WHT NOSIG
06:42
V
15 °C 10 km+ - 280° 280° 13 kt METAR EHKD 010442Z AUTO 28013KT 250V320 9999 FEW018 SCT023 15/12 Q0997 WHT NOSIG
06:35
V
15 °C 10 km+ 3.400 ft 280° 280° 12 kt METAR EHKD 010435Z AUTO 28012KT 250V320 9999 FEW018 SCT025 BKN034 15/12 Q0997 BLU NOSIG
06:25
M
15 °C 10 km+ 1.700 ft 280° 280° 11 kt METAR EHKD 010425Z AUTO 28011KT 240V320 9999 BKN017 BKN022 BKN029 15/12 Q0997 WHT NOSIG
06:19
M
15 °C 10 km+ 1.600 ft 280° 280° 11 kt METAR EHKD 010419Z AUTO 28011KT 240V320 9999 BKN016 BKN019 BKN022 15/12 Q0997 WHT NOSIG
06:09
M
15 °C 10 km+ 2.300 ft 280° 280° 13 kt METAR EHKD 010409Z AUTO 28013KT 9999 SCT016 BKN023 BKN035 15/12 Q0996 WHT
05:55
M
15 °C 10 km+ 2.200 ft 270° 270° 13 kt METAR EHKD 010355Z AUTO 27013KT 240V310 9999 SCT016 BKN022 BKN025 15/12 Q0996 WHT
05:25
M
15 °C 10 km+ 2.000 ft 280° 280° 13 kt METAR EHKD 010325Z AUTO 28013KT 250V310 9999 SCT016 BKN020 BKN023 15/12 Q0996 WHT
05:19
V
15 °C 10 km+ 3.700 ft 280° 280° 14 kt METAR EHKD 010319Z AUTO 28014KT 250V310 9999 FEW016 SCT022 BKN037 15/12 Q0996 WHT
05:12
M
15 °C 10 km+ 2.800 ft 270° 270° 14 kt METAR EHKD 010312Z AUTO 27014KT 250V310 9999 FEW015CB BKN028 BKN033 15/13 Q0996 BLU
05:06
M
15 °C 10 km+ 1.500 ft 270° 270° 13 kt METAR EHKD 010306Z AUTO 27013KT 230V300 9999 BKN015CB BKN019 BKN022 15/13 Q0996 WHT
04:55
M
15 °C 10 km+ 1.500 ft 240° 240° 12 kt METAR EHKD 010255Z AUTO 24012KT 190V290 9999 BKN015CB BKN020 BKN031 15/13 Q0996 RERAGR WHT
04:40
I
12 °C 10 km+ 800 ft 240° 240° 13 kt METAR EHKD 010240Z AUTO 24013KT 200V280 9999 -SHRAGR FEW000 SCT007 BKN008 FEW015CB 12/12 Q0995 GRN
04:32
I
12 °C 3,4 km 700 ft 190° 190° 21 kt METAR EHKD 010232Z AUTO 19021KT 160V220 3400 +SHRA SCT006 BKN007 BKN008 FEW015CB 12/11 Q0995 YLO
04:25
I
12 °C 5 km 700 ft 190° 190° 22 kt METAR EHKD 010225Z AUTO 19022KT 5000 SHRA FEW002 SCT006 BKN007 FEW015CB 12/11 Q0995 YLO
04:17
I
12 °C 4,2 km 800 ft 190° 190° 22 kt METAR EHKD 010217Z AUTO 19022KT 160V220 4200 +SHRA FEW002 SCT006 BKN008 FEW015CB 12/11 Q0995 YLO
04:12
I
12 °C 9 km 800 ft 190° 190° 21 kt METAR EHKD 010212Z AUTO 19021KT 160V220 9000 -RA FEW007 BKN008 BKN010 FEW015CB 12/11 Q0995 GRN
03:55
M
12 °C 9 km 1.000 ft 190° 190° 23 kt METAR EHKD 010155Z AUTO 19023KT 9000 -RA FEW008 SCT009 OVC010 12/11 Q0996 RERA REDZ GRN
03:43
M
12 °C 7 km 1.000 ft 190° 190° 22 kt METAR EHKD 010143Z AUTO 19022KT 7000 -RADZ FEW008 SCT009 OVC010 12/11 Q0996 GRN
03:25
M
12 °C 10 km+ 1.000 ft 190° 190° 23 kt METAR EHKD 010125Z AUTO 19023KT 160V220 9999 BKN010 OVC012 12/11 Q0996 GRN
02:55
M
11 °C 10 km+ 1.200 ft 180° 180° 21 kt METAR EHKD 010055Z AUTO 18021KT 9999 FEW009 SCT010 BKN012 FEW015CB 11/10 Q0997 GRN
02:25
M
11 °C 5 km 1.000 ft 180° 180° 21 kt METAR EHKD 010025Z AUTO 18021KT 150V210 5000 SHRA FEW008 BKN010 BKN012 FEW015CB 11/10 Q0997 GRN
02:14
M
11 °C 9 km 1.000 ft 180° 180° 21 - 31 kt METAR EHKD 010014Z AUTO 18021G31KT 160V220 9000 -SHRA FEW008 BKN010 BKN013 FEW015CB 11/10 Q0997 GRN
01:57
M
11 °C 6 km 1.500 ft 180° 180° 22 kt METAR EHKD 302357Z AUTO 18022KT 150V210 6000 SHRA FEW008 BKN015CB OVC018 11/10 Q0998 WHT
01:55
M
11 °C 5 km 1.600 ft 180° 180° 21 kt METAR EHKD 302355Z AUTO 18021KT 150V210 5000 SHRA FEW008 SCT014 SCT015CB BKN016 11/10 Q0998 GRN
01:25
M
11 °C 7 km 1.500 ft 180° 180° 22 kt METAR EHKD 302325Z AUTO 18022KT 150V210 7000 -SHRA SCT012 BKN015CB OVC018 11/10 Q0999 GRN
01:17
M
11 °C 9 km 1.500 ft 180° 180° 22 kt METAR EHKD 302317Z AUTO 18022KT 9000 -SHRA FEW012 SCT014 BKN015CB 11/10 Q0999 GRN
00:55
M
11 °C 10 km+ 1.500 ft 180° 180° 21 kt METAR EHKD 302255Z AUTO 18021KT 150V210 9999 -SHRA BKN015CB BKN019 OVC024 11/10 Q0999 WHT
00:25
M
12 °C 8 km 1.500 ft 190° 190° 19 kt METAR EHKD 302225Z AUTO 19019KT 8000 -RA FEW014 BKN015CB BKN020 12/10 Q1000 WHT
00:10
M
12 °C 6 km 1.500 ft 190° 190° 19 - 30 kt METAR EHKD 302210Z AUTO 19019G30KT 6000 RA BKN015CB SCT016 BKN023 12/10 Q1000 WHT

30 september 2022

Tijd Code Weer Temp. Zicht Plafond Wind METAR/SPECI
23:55
M
12 °C 10 km+ 1.500 ft 190° 190° 17 kt METAR EHKD 302155Z AUTO 19017KT 160V220 9999 -RA BKN015CB SCT016 BKN028 12/10 Q1001 WHT
23:25
M
13 °C 10 km+ 1.500 ft 190° 190° 19 kt METAR EHKD 302125Z AUTO 19019KT 160V230 9999 -SHRA BKN015CB SCT021 BKN025 OVC028 13/10 Q1001 WHT
23:18
M
13 °C 10 km+ 1.500 ft 190° 190° 20 kt METAR EHKD 302118Z AUTO 19020KT 160V230 9999 -RA BKN015CB SCT022 BKN026 OVC029 13/10 Q1001 WHT
23:04
V
13 °C 10 km+ 3.500 ft 190° 190° 20 kt METAR EHKD 302104Z AUTO 19020KT 9999 -RA SCT015CB SCT027 BKN035 13/10 Q1001 WHT
22:55
V
13 °C 10 km+ 3.500 ft 190° 190° 19 kt METAR EHKD 302055Z AUTO 19019KT 9999 -RA FEW015CB SCT031 OVC035 13/10 Q1001 BLU
22:44
M
13 °C 10 km+ 2.900 ft 190° 190° 18 kt METAR EHKD 302044Z AUTO 19018KT 160V220 9999 -RA FEW015CB BKN029 OVC033 13/10 Q1001 BLU
22:37
M
13 °C 10 km+ 2.700 ft 200° 200° 18 kt METAR EHKD 302037Z AUTO 20018KT 160V230 9999 -SHRA SCT024 BKN027 OVC032 13/10 Q1001 WHT
22:25
M
13 °C 10 km+ 2.800 ft 190° 190° 16 kt METAR EHKD 302025Z AUTO 19016KT 160V220 9999 -RA BKN028 OVC032 13/10 Q1001 RERA REDZ BLU
21:55
V
14 °C 10 km+ 3.100 ft 190° 190° 16 kt METAR EHKD 301955Z AUTO 19016KT 9999 DZ BKN031 BKN035 OVC044 14/09 Q1002 BLU
21:25
V
14 °C 10 km+ 3.600 ft 180° 180° 16 kt METAR EHKD 301925Z AUTO 18016KT 9999 SCT032 BKN036 OVC042 14/09 Q1002 BLU
20:55
V
15 °C 10 km+ 3.300 ft 190° 190° 14 kt METAR EHKD 301855Z AUTO 19014KT 9999 BKN033 BKN038 OVC043 15/09 Q1003 BLU
20:25
V
15 °C 10 km+ 3.800 ft 200° 200° 18 kt METAR EHKD 301825Z AUTO 20018KT 160V230 9999 SCT033 BKN038 BKN044 15/09 Q1003 BLU
20:13
V
15 °C 10 km+ 3.800 ft 190° 190° 14 kt METAR EHKD 301813Z AUTO 19014KT 160V220 9999 SCT034 BKN038 OVC043 15/09 Q1003 BLU
19:55
V
15 °C 10 km+ 3.500 ft 190° 190° 15 kt METAR EHKD 301755Z AUTO 19015KT 160V220 9999 SCT030 BKN035 OVC039 15/09 Q1004 BLU NOSIG
19:25
V
15 °C 10 km+ 3.600 ft 190° 190° 16 kt METAR EHKD 301725Z AUTO 19016KT 160V220 9999 SCT031 BKN036 OVC043 15/09 Q1004 BLU NOSIG
18:55
V
15 °C 10 km+ 4.100 ft 200° 200° 16 kt METAR EHKD 301655Z AUTO 20016KT 9999 SCT031 SCT036 BKN041 15/10 Q1004 BLU NOSIG
18:25
V
15 °C 10 km+ 20.000 ft 210° 210° 18 kt METAR EHKD 301625Z AUTO 21018KT 180V240 9999 SCT028 SCT034 OVC200 15/10 Q1005 BLU NOSIG
17:55
V
15 °C 10 km+ 22.000 ft 220° 220° 18 kt METAR EHKD 301555Z AUTO 22018KT 190V260 9999 FEW030 OVC220 15/09 Q1005 BLU NOSIG
17:25
M
16 °C 10 km+ 2.800 ft 210° 210° 17 kt METAR EHKD 301525Z AUTO 21017KT 180V240 9999 BKN028 BKN035 BKN042 16/10 Q1005 BLU NOSIG
16:55
V
16 °C 10 km+ 24.000 ft 220° 220° 17 kt METAR EHKD 301455Z AUTO 22017KT 170V240 9999 FEW030 OVC240 16/10 Q1005 BLU NOSIG
16:25
M
16 °C 10 km+ 2.700 ft 210° 210° 17 kt METAR EHKD 301425Z AUTO 21017KT 160V240 9999 FEW023 BKN027 OVC030 16/11 Q1005 BLU NOSIG
15:55
V
15 °C 10 km+ 3.200 ft 200° 200° 16 - 26 kt METAR EHKD 301355Z AUTO 20016G26KT 170V230 9999 SCT022 SCT027 BKN032 15/11 Q1006 WHT NOSIG
15:25
V
16 °C 10 km+ 27.000 ft 210° 210° 16 kt METAR EHKD 301325Z AUTO 21016KT 170V250 9999 FEW025 SCT030 OVC270 16/10 Q1006 BLU NOSIG
14:55
V
16 °C 10 km+ 29.000 ft 210° 210° 17 kt METAR EHKD 301255Z AUTO 21017KT 180V240 9999 FEW023 SCT026 BKN290 16/11 Q1006 BLU NOSIG
14:25
V
17 °C 10 km+ 6.000 ft 200° 200° 18 kt METAR EHKD 301225Z AUTO 20018KT 170V230 9999 FEW023 SCT029 BKN060 17/11 Q1006 BLU NOSIG
14:11
V
16 °C 10 km+ 6.100 ft 210° 210° 17 kt METAR EHKD 301211Z AUTO 21017KT 180V250 9999 SCT021 SCT033 BKN061 16/11 Q1007 WHT NOSIG
14:06
V
16 °C 10 km+ - 200° 200° 16 kt METAR EHKD 301206Z AUTO 20016KT 170V250 9999 FEW021 SCT026 16/11 Q1007 BLU NOSIG
13:55
M
17 °C 10 km+ 2.300 ft 200° 200° 16 kt METAR EHKD 301155Z AUTO 20016KT 170V240 9999 SCT020 BKN023 BKN028 17/11 Q1007 WHT NOSIG
13:25
V
16 °C 10 km+ - 210° 210° 13 kt METAR EHKD 301125Z AUTO 21013KT 180V240 9999 FEW025 16/10 Q1007 BLU TEMPO SCT020
13:18
V
17 °C 10 km+ - 210° 210° 12 kt METAR EHKD 301118Z AUTO 21012KT 180V240 9999 SCT024 17/11 Q1007 WHT TEMPO SCT020
13:14
V
17 °C 10 km+ - 200° 200° 13 kt METAR EHKD 301114Z AUTO 20013KT 180V240 9999 FEW024 SCT027 17/11 Q1007 BLU TEMPO SCT020
13:05
V
17 °C 10 km+ 5.700 ft 200° 200° 13 kt METAR EHKD 301105Z AUTO 20013KT 170V240 9999 SCT024 BKN057 17/11 Q1007 WHT TEMPO SCT020
12:55
V
16 °C 10 km+ - 200° 200° 13 kt METAR EHKD 301055Z AUTO 20013KT 170V250 9999 FEW027 16/10 Q1007 BLU TEMPO SCT020
12:31
M
16 °C 10 km+ 2.200 ft 190° 190° 13 kt METAR EHKD 301031Z AUTO 19013KT 9999 BKN022 BKN030 16/11 Q1007 WHT TEMPO SCT020
12:27
V
16 °C 10 km+ - 190° 190° 12 kt METAR EHKD 301027Z AUTO 19012KT 150V220 9999 SCT022 SCT031 16/11 Q1007 WHT TEMPO SCT020
12:25
V
16 °C 10 km+ - 190° 190° 12 kt METAR EHKD 301025Z AUTO 19012KT 150V220 9999 FEW023 16/10 Q1008 BLU TEMPO SCT020
11:55
V
15 °C 10 km+ - 190° 190° 11 kt METAR EHKD 300955Z AUTO 19011KT 160V220 9999 NCD 15/10 Q1008 BLU TEMPO SCT020
11:25
V
15 °C 10 km+ - 180° 180° 10 kt METAR EHKD 300925Z AUTO 18010KT 9999 NCD 15/10 Q1007 BLU NOSIG
10:55
V
15 °C 10 km+ - 180° 180° 9 kt METAR EHKD 300855Z AUTO 18009KT 150V210 9999 NCD 15/10 Q1008 BLU NOSIG
10:25
V
14 °C 10 km+ - 180° 180° 8 kt METAR EHKD 300825Z AUTO 18008KT 150V210 9999 NCD 14/11 Q1008 BLU NOSIG
09:55
V
12 °C 10 km+ - 180° 180° 8 kt METAR EHKD 300755Z AUTO 18008KT 150V220 9999 NCD 12/10 Q1008 BLU NOSIG
09:25
V
11 °C 10 km+ - 170° 170° 6 kt METAR EHKD 300725Z AUTO 17006KT 140V200 9999 NCD 11/09 Q1008 BLU NOSIG
08:55
V
9 °C 10 km+ - 170° 170° 5 kt METAR EHKD 300655Z AUTO 17005KT 9999 NCD 09/09 Q1008 BLU NOSIG
08:25
V
8 °C 10 km+ - 170° 170° 3 kt METAR EHKD 300625Z AUTO 17003KT 9999 NCD 08/07 Q1008 BLU NOSIG
07:55
V
7 °C 10 km+ - 190° 190° 3 kt METAR EHKD 300555Z AUTO 19003KT 9999 NCD 07/07 Q1008 BLU TEMPO 2000 BR MIFG
07:34
L
7 °C 0 m - 200° 200° 2 kt METAR EHKD 300534Z AUTO 20002KT //// R21/P3000N // NCD 07/07 Q1008 TEMPO 2000 BR MIFG
07:33
L
7 °C 0 m - 200° 200° 2 kt METAR EHKD 300533Z AUTO 20002KT //// R21/P3000N // NCD 07/07 Q1008 TEMPO 2000 BR MIFG
07:25
V
7 °C 10 km+ - 200° 200° 2 kt METAR EHKD 300525Z AUTO 20002KT 9999 // NCD 07/07 Q1008 RE// BLU TEMPO 2000 BR MIFG
07:00
L
7 °C 0 m - 200° 200° 2 kt METAR EHKD 300500Z AUTO 20002KT //// // NCD 07/07 Q1008 TEMPO 2000 BR MIFG
06:55
V
7 °C 10 km+ - Var Var 2 kt METAR EHKD 300455Z AUTO VRB02KT 9999 NCD 07/07 Q1008 BLU
06:41
V
7 °C 10 km+ - Var Var 2 kt METAR EHKD 300441Z AUTO VRB02KT 9999 NCD 07/07 Q1008 BLU
06:27
V
7 °C 10 km+ - 180° 180° 5 kt METAR EHKD 300427Z AUTO 18005KT 9999 NCD 07/07 Q1007 BLU
06:25
I
7 °C 2,4 km - 180° 180° 4 kt METAR EHKD 300425Z AUTO 18004KT 2400 BR NCD 07/07 Q1007 YLO
06:18
L
7 °C 800 m - 180° 180° 3 kt METAR EHKD 300418Z AUTO 18003KT 0800 FG NCD 07/07 Q1007 AMB
06:11
L
7 °C 600 m - 190° 190° 2 kt METAR EHKD 300411Z AUTO 19002KT 0600 FG NCD 07/07 Q1007 RED
06:05
L
7 °C 1 km - 200° 200° 2 kt METAR EHKD 300405Z AUTO 20002KT 1000 BR NCD 07/07 Q1007 AMB
05:57
L
8 °C 550 m - 190° 190° 2 kt METAR EHKD 300357Z AUTO 19002KT 0550 FG NCD 08/07 Q1007 RED
05:55
L
8 °C 800 m - 190° 190° 2 kt METAR EHKD 300355Z AUTO 19002KT 0800 FG NCD 08/07 Q1007 AMB
05:39
L
7 °C 1 km - 210° 210° 3 kt METAR EHKD 300339Z AUTO 21003KT 1000 BR NCD 07/07 Q1007 AMB
05:35
L
7 °C 600 m - 210° 210° 3 kt METAR EHKD 300335Z AUTO 21003KT 0600 FG NCD 07/07 Q1007 RED
05:25
L
7 °C 650 m - 210° 210° 3 kt METAR EHKD 300325Z AUTO 21003KT 0650 FG NCD 07/07 Q1007 RED
04:55
L
7 °C 650 m - 180° 180° 2 kt METAR EHKD 300255Z AUTO 18002KT 0650 FG NCD 07/07 Q1007 RED
04:25
L
8 °C 800 m - Var Var 1 kt METAR EHKD 300225Z AUTO VRB01KT 0800 FG NCD 08/08 Q1007 AMB
04:14
L
8 °C 600 m - 150° 150° 1 kt METAR EHKD 300214Z AUTO 15001KT 0600 FG NCD 08/08 Q1007 RED
04:10
L
8 °C 1 km - 150° 150° 1 kt METAR EHKD 300210Z AUTO 15001KT 1000 BR NCD 08/08 Q1007 AMB
04:01
V
9 °C 10 km+ - 150° 150° 1 kt METAR EHKD 300201Z AUTO 15001KT 9999 NCD 09/08 Q1007 BLU
03:55
I
8 °C 3,3 km - 180° 180° 1 kt METAR EHKD 300155Z AUTO 18001KT 3300 BR NCD 08/08 Q1007 YLO
03:43
I
8 °C 2,3 km - Var Var 1 kt METAR EHKD 300143Z AUTO VRB01KT 2300 BR NCD 08/08 Q1007 YLO
03:39
L
8 °C 1 km - Var Var 1 kt METAR EHKD 300139Z AUTO VRB01KT 1000 BR NCD 08/08 Q1007 AMB
03:35
I
8 °C 1,7 km - 280° 280° 2 kt METAR EHKD 300135Z AUTO 28002KT 1700 BR NCD 08/08 Q1007 YLO
03:25
M
9 °C 5 km - 240° 240° 2 kt METAR EHKD 300125Z AUTO 24002KT 5000 BR NCD 09/08 Q1007 WHT
03:19
M
9 °C 5 km - 220° 220° 1 kt METAR EHKD 300119Z AUTO 22001KT 5000 BR NCD 09/08 Q1007 WHT
03:15
I
9 °C 2,2 km - 200° 200° 1 kt METAR EHKD 300115Z AUTO 20001KT 2200 BR NCD 09/08 Q1007 YLO
03:07
V
9 °C 10 km+ - Var Var 1 kt METAR EHKD 300107Z AUTO VRB01KT 9999 SCT075 09/09 Q1007 BLU
02:55
V
9 °C 10 km+ - 290° 290° 1 kt METAR EHKD 300055Z AUTO 29001KT 9999 NCD 09/08 Q1007 BLU
02:40
I
8 °C 4,3 km - 250° 250° 2 kt METAR EHKD 300040Z AUTO 25002KT 4300 BR NCD 08/08 Q1007 GRN
02:33
I
8 °C 2,6 km - 250° 250° 3 kt METAR EHKD 300033Z AUTO 25003KT 2600 BR NCD 08/08 Q1007 YLO
02:25
V
9 °C 10 km+ - 240° 240° 2 kt METAR EHKD 300025Z AUTO 24002KT 9999 NCD 09/08 Q1007 BLU RMK CB INFO NOT AVBL
01:55
V
10 °C 10 km+ - Var Var 1 kt METAR EHKD 292355Z AUTO VRB01KT 9999 NCD 10/09 Q1007 BLU
01:25
V
10 °C 10 km+ 7.200 ft Var Var 1 kt METAR EHKD 292325Z AUTO VRB01KT 9999 FEW066 BKN072 OVC080 10/09 Q1007 BLU
00:55
V
10 °C 10 km+ 7.500 ft 350° 350° 5 kt METAR EHKD 292255Z AUTO 35005KT 310V020 9999 FEW015CB BKN075 10/09 Q1007 BLU
00:25
V
10 °C 10 km+ 6.600 ft 260° 260° 2 kt METAR EHKD 292225Z AUTO 26002KT 9999 FEW015CB BKN066 OVC072 10/10 Q1007 BLU
00:06
V
10 °C 10 km+ 3.700 ft 270° 270° 2 kt METAR EHKD 292206Z AUTO 27002KT 9999 FEW015CB OVC037 10/10 Q1007 BLU

29 september 2022

Tijd Code Weer Temp. Zicht Plafond Wind METAR/SPECI
23:55
V
11 °C 10 km+ 6.400 ft 280° 280° 2 kt METAR EHKD 292155Z AUTO 28002KT 9999 OVC064 11/10 Q1007 BLU
23:36
V
10 °C 8 km 6.300 ft 270° 270° 2 kt METAR EHKD 292136Z AUTO 27002KT 8000 BR OVC063 10/10 Q1007 BLU
23:25
V
10 °C 10 km+ 6.400 ft 290° 290° 1 kt METAR EHKD 292125Z AUTO 29001KT 9999 SCT059 OVC064 10/10 Q1007 BLU
23:11
V
10 °C 10 km+ 6.100 ft 300° 300° 1 kt METAR EHKD 292111Z AUTO 30001KT 9999 BKN061 OVC066 10/10 Q1006 BLU
22:55
M
11 °C 6 km 6.300 ft 340° 340° 1 kt METAR EHKD 292055Z AUTO 34001KT 6000 BR OVC063 11/10 Q1006 WHT
22:43
L
10 °C 1,2 km 6.300 ft 330° 330° 2 kt METAR EHKD 292043Z AUTO 33002KT 1200 R21/1900D BR BKN063 OVC069 10/10 Q1006 AMB TEMPO 4000 SHRA SCT020CB BKN030
22:38
I
10 °C 1,8 km 6.300 ft 330° 330° 2 kt METAR EHKD 292038Z AUTO 33002KT 1800 R21/P3000D BR BKN063 OVC069 10/10 Q1006 YLO TEMPO 4000 SHRA SCT020CB BKN030
22:25
V
10 °C 10 km+ 6.300 ft 350° 350° 1 kt METAR EHKD 292025Z AUTO 35001KT 9999 BKN063 10/10 Q1006 BLU TEMPO 4000 SHRA SCT020CB BKN030
21:55
V
11 °C 10 km+ 6.000 ft 270° 270° 1 kt METAR EHKD 291955Z AUTO 27001KT 9999 OVC060 11/10 Q1006 BLU TEMPO 4000 SHRA SCT020CB BKN030
21:25
V
11 °C 10 km+ 5.600 ft 260° 260° 2 kt METAR EHKD 291925Z AUTO 26002KT 9999 BKN056 OVC061 11/10 Q1006 BLU TEMPO 4000 SHRA SCT020CB BKN030
20:55
V
11 °C 10 km+ 5.200 ft 250° 250° 3 kt METAR EHKD 291855Z AUTO 25003KT 230V290 9999 FEW015CB OVC052 11/10 Q1005 BLU TEMPO 4000 SHRA SCT020CB BKN030
20:25
V
12 °C 10 km+ 5.800 ft 010° 010° 2 kt METAR EHKD 291825Z AUTO 01002KT 9999 FEW015CB OVC058 12/10 Q1005 BLU TEMPO 4000 SHRA SCT020CB BKN030
19:55
V
12 °C 10 km+ 5.400 ft 340° 340° 3 kt METAR EHKD 291755Z AUTO 34003KT 310V030 9999 -RADZ FEW015CB BKN054 OVC060 12/10 Q1005 RERA REDZ BLU TEMPO 4000 SHRA SCT020CB BKN030
19:27
V
12 °C 10 km+ 3.500 ft 020° 020° 5 kt METAR EHKD 291727Z AUTO 02005KT 320V090 9999 SHRA FEW015CB SCT027 BKN035 12/09 Q1005 BLU TEMPO 4000 SHRA SCT020CB BKN030
19:25
M
13 °C 10 km+ 2.700 ft 010° 010° 4 kt METAR EHKD 291725Z AUTO 01004KT 290V090 9999 RA FEW015CB SCT024 OVC027 13/09 Q1005 RERA REDZ WHT TEMPO 4000 SHRA SCT020CB BKN030
19:16
M
13 °C 10 km+ 2.400 ft Var Var 4 kt METAR EHKD 291716Z AUTO VRB04KT 9999 -RA FEW015CB BKN024 OVC027 13/09 Q1005 WHT TEMPO 4000 SHRA SCT020CB BKN030
18:55
M
13 °C 10 km+ 2.800 ft 150° 150° 5 kt METAR EHKD 291655Z AUTO 15005KT 9999 FEW015CB BKN028 OVC035 13/10 Q1004 REDZ BLU TEMPO 4000 SHRA SCT020CB BKN030
18:43
M
13 °C 10 km+ 2.800 ft 140° 140° 4 kt METAR EHKD 291643Z AUTO 14004KT 9999 -RADZ FEW003 OVC028 13/09 Q1004 BLU TEMPO 4000 SHRA SCT020CB BKN030
18:29
M
13 °C 10 km+ 2.700 ft Var Var 2 kt METAR EHKD 291629Z AUTO VRB02KT 9999 SHRA FEW000 FEW015CB OVC027 13/10 Q1004 BLU TEMPO 4000 SHRA SCT020CB BKN030
18:25
M
14 °C 10 km+ 2.800 ft 150° 150° 4 kt METAR EHKD 291625Z AUTO 15004KT 100V180 9999 RA FEW016CB OVC028 14/10 Q1004 BLU TEMPO VRB01KT
17:55
V
15 °C 10 km+ 3.700 ft 300° 300° 4 kt METAR EHKD 291555Z AUTO 30004KT 270V340 9999 -RA FEW004 SCT030 BKN037 15/09 Q1004 BLU TEMPO VRB01KT
17:25
V
15 °C 10 km+ 3.100 ft 160° 160° 3 kt METAR EHKD 291525Z AUTO 16003KT 9999 BKN031 OVC037 15/09 Q1003 BLU TEMPO VRB01KT
16:55
V
14 °C 10 km+ 4.200 ft Var Var 2 kt METAR EHKD 291455Z AUTO VRB02KT 9999 BKN042 BKN047 BKN052 14/09 Q1003 REDZ BLU TEMPO VRB01KT
16:25
V
15 °C 10 km+ 3.100 ft Var Var 4 kt METAR EHKD 291425Z AUTO VRB04KT 9999 -RA FEW018 OVC031 15/08 Q1003 BLU TEMPO VRB01KT
15:55
M
14 °C 10 km+ 2.800 ft 080° 080° 3 kt METAR EHKD 291355Z AUTO 08003KT 050V110 9999 OVC028 14/09 Q1003 BLU TEMPO VRB01KT
15:25
V
14 °C 10 km+ 3.100 ft 050° 050° 7 kt METAR EHKD 291325Z AUTO 05007KT 360V080 9999 BKN031 OVC036 14/08 Q1003 BLU TEMPO VRB01KT
14:55
M
15 °C 10 km+ 2.800 ft Var Var 1 kt METAR EHKD 291255Z AUTO VRB01KT 9999 BKN028 OVC032 15/08 Q1003 BLU TEMPO VRB01KT
14:25
M
14 °C 10 km+ 2.900 ft 070° 070° 2 kt METAR EHKD 291225Z AUTO 07002KT 9999 BKN029 BKN033 BKN260 14/09 Q1003 BLU TEMPO VRB01KT
13:55
M
14 °C 10 km+ 2.800 ft 070° 070° 3 kt METAR EHKD 291155Z AUTO 07003KT 9999 OVC028 14/08 Q1002 BLU TEMPO VRB01KT
13:25
V
14 °C 10 km+ 4.000 ft 090° 090° 3 kt METAR EHKD 291125Z AUTO 09003KT 9999 BKN040 BKN045 14/08 Q1002 BLU TEMPO VRB01KT
13:02
V
15 °C 10 km+ 22.000 ft Var Var 1 kt METAR EHKD 291102Z AUTO VRB01KT 9999 OVC220 15/08 Q1002 BLU TEMPO VRB01KT
12:55
V
14 °C 10 km+ 23.000 ft Var Var 2 kt METAR EHKD 291055Z AUTO VRB02KT 9999 FEW028 OVC230 14/08 Q1002 BLU TEMPO VRB01KT
Oudere gegevens

Met cookies volgen wij en derde partijen jouw internetgedrag binnen onze site. Als je verdergaat gaan we ervan uit dat je dit goedvindt. Meer info